createdAt,value
2018-12-29T09:47:35.168Z,1003.49
2018-12-29T09:52:25.609Z,1003.34
2018-12-29T10:08:56.689Z,1003.20
2018-12-29T10:19:11.685Z,1003.05
2018-12-29T10:20:12.449Z,1003.03
2018-12-29T10:21:13.321Z,1003.05
2018-12-29T10:22:15.969Z,1003.02
2018-12-29T10:28:20.884Z,1003.05
2018-12-29T11:32:25.051Z,1002.25
2018-12-29T11:33:17.588Z,1002.18
2018-12-29T11:34:18.094Z,1002.14
2018-12-29T11:35:17.762Z,1002.13
2018-12-29T11:36:30.881Z,1002.18
2018-12-29T11:37:18.451Z,1002.13
2018-12-29T11:38:16.442Z,1002.13
2018-12-29T11:39:17.238Z,1002.13
2018-12-29T11:40:16.411Z,1002.10
2018-12-29T11:41:16.592Z,1002.10
2018-12-29T11:42:16.681Z,1002.08
2018-12-29T11:43:16.762Z,1002.07
2018-12-29T11:44:16.980Z,1002.08
2018-12-29T11:45:17.162Z,1002.08
2018-12-29T11:46:17.360Z,1002.10
2018-12-29T11:47:17.480Z,1001.99
2018-12-29T11:48:17.611Z,1001.97
2018-12-29T11:49:18.109Z,1001.95
2018-12-29T11:50:17.929Z,1001.93
2018-12-29T11:51:18.156Z,1001.92
2018-12-29T11:52:18.195Z,1001.81
2018-12-29T11:53:18.402Z,1001.82
2018-12-29T11:54:19.669Z,1001.80
2018-12-29T11:55:18.697Z,1001.78
2018-12-29T11:56:18.835Z,1001.78
2018-12-29T11:57:19.021Z,1001.78
2018-12-29T11:58:19.115Z,1001.75
2018-12-29T11:59:19.319Z,1001.72
2018-12-29T12:00:20.078Z,1001.68
2018-12-29T12:01:19.679Z,1001.68
2018-12-29T12:02:24.472Z,1001.67
2018-12-29T12:03:20.104Z,1001.71
2018-12-29T12:04:20.184Z,1001.72
2018-12-29T12:05:20.328Z,1001.70
2018-12-29T12:06:21.028Z,1001.67
2018-12-29T12:07:20.553Z,1001.69
2018-12-29T12:08:20.821Z,1001.65
2018-12-29T12:09:20.953Z,1001.71
2018-12-29T12:10:21.024Z,1001.67
2018-12-29T12:11:21.229Z,1001.69
2018-12-29T12:12:21.412Z,1001.63
2018-12-29T12:13:21.644Z,1001.65
2018-12-29T12:14:21.755Z,1001.62
2018-12-29T12:15:21.869Z,1001.67
2018-12-29T12:16:22.064Z,1001.62
2018-12-29T12:17:23.008Z,1001.65
2018-12-29T12:18:22.477Z,1001.62
2018-12-29T12:19:22.620Z,1001.63
2018-12-29T12:20:23.536Z,1001.62
2018-12-29T12:21:22.942Z,1001.66
2018-12-29T12:22:23.076Z,1001.61
2018-12-29T12:23:23.253Z,1001.58
2018-12-29T12:24:23.517Z,1001.62
2018-12-29T12:25:23.574Z,1001.63
2018-12-29T12:26:23.787Z,1001.69
2018-12-29T12:27:23.849Z,1001.73
2018-12-29T12:28:24.095Z,1001.69
2018-12-29T12:29:24.199Z,1001.65
2018-12-29T12:30:24.352Z,1001.67
2018-12-29T12:31:24.579Z,1001.61
2018-12-29T12:32:24.714Z,1001.51
2018-12-29T12:33:25.025Z,1001.50
2018-12-29T12:34:26.017Z,1001.52
2018-12-29T12:35:25.190Z,1001.57
2018-12-29T12:36:25.386Z,1001.58
2018-12-29T12:37:25.519Z,1001.51
2018-12-29T12:38:25.622Z,1001.57
2018-12-29T12:39:25.898Z,1001.52
2018-12-29T12:40:26.071Z,1001.54
2018-12-29T12:41:26.243Z,1001.54
2018-12-29T12:42:26.433Z,1001.56
2018-12-29T12:43:26.461Z,1001.50
2018-12-29T12:44:26.706Z,1001.49
2018-12-29T12:45:28.612Z,1001.50
2018-12-29T12:46:27.562Z,1001.37
2018-12-29T12:47:27.093Z,1001.31
2018-12-29T12:48:27.298Z,1001.28
2018-12-29T12:49:27.416Z,1001.27
2018-12-29T12:50:27.554Z,1001.34
2018-12-29T12:51:27.755Z,1001.30
2018-12-29T12:52:27.848Z,1001.29
2018-12-29T12:53:28.070Z,1001.37
2018-12-29T12:54:28.222Z,1001.40
2018-12-29T12:55:28.378Z,1001.40
2018-12-29T12:56:29.008Z,1001.35
2018-12-29T12:57:28.759Z,1001.27
2018-12-29T12:58:28.884Z,1001.27
2018-12-29T12:59:29.069Z,1001.28
2018-12-29T13:00:29.234Z,1001.30
2018-12-29T13:01:29.357Z,1001.30
2018-12-29T13:02:29.562Z,1001.30
2018-12-29T13:03:29.733Z,1001.25
2018-12-29T13:04:29.892Z,1001.19
2018-12-29T13:05:30.076Z,1001.21
2018-12-29T13:06:30.200Z,1001.20
2018-12-29T13:07:30.445Z,1001.23
2018-12-29T13:08:30.525Z,1001.16
2018-12-29T13:09:46.549Z,1001.14
2018-12-29T13:10:30.865Z,1001.23
2018-12-29T13:11:32.718Z,1001.26
2018-12-29T13:12:31.187Z,1001.27
2018-12-29T13:13:31.365Z,1001.31
2018-12-29T13:16:50.790Z,1001.27
2018-12-29T13:17:31.815Z,1001.29
2018-12-29T13:19:28.795Z,1001.41
2018-12-29T13:20:28.505Z,1001.36
2018-12-29T13:21:28.857Z,1001.43
2018-12-29T13:22:28.831Z,1001.39
2018-12-29T13:23:28.849Z,1001.45
2018-12-29T13:24:28.791Z,1001.38
2018-12-29T13:25:29.580Z,1001.37
2018-12-29T13:26:29.086Z,1001.35
2018-12-29T13:27:29.437Z,1001.49
2018-12-29T13:28:29.333Z,1001.53
2018-12-29T13:29:30.881Z,1001.42
2018-12-29T13:30:29.680Z,1001.47
2018-12-29T13:31:30.441Z,1001.40
2018-12-29T13:32:30.191Z,1001.36
2018-12-29T13:33:30.168Z,1001.32
2018-12-29T13:34:30.319Z,1001.31
2018-12-29T13:35:31.472Z,1001.26
2018-12-29T13:36:30.661Z,1001.15
2018-12-29T13:37:31.462Z,1001.19
2018-12-29T13:38:30.958Z,1001.18
2018-12-29T13:39:31.240Z,1001.24
2018-12-29T13:40:31.286Z,1001.32
2018-12-29T13:41:31.489Z,1001.26
2018-12-29T13:42:31.514Z,1001.17
2018-12-29T13:43:31.789Z,1001.05
2018-12-29T13:44:33.430Z,1001.04
2018-12-29T13:45:32.062Z,1001.18
2018-12-29T13:46:32.151Z,1001.18
2018-12-29T13:47:32.342Z,1001.19
2018-12-29T13:48:32.535Z,1001.21
2018-12-29T13:49:32.674Z,1001.23
2018-12-29T13:50:32.823Z,1001.25
2018-12-29T13:51:32.998Z,1001.30
2018-12-29T13:52:33.120Z,1001.32
2018-12-29T13:53:33.303Z,1001.33
2018-12-29T13:54:33.557Z,1001.28
2018-12-29T13:55:33.679Z,1001.30
2018-12-29T13:56:34.385Z,1001.36
2018-12-29T13:57:33.934Z,1001.35
2018-12-29T13:58:34.180Z,1001.36
2018-12-29T13:59:34.903Z,1001.38
2018-12-29T14:00:36.417Z,1001.35
2018-12-29T14:01:35.094Z,1001.29
2018-12-29T14:02:34.859Z,1001.28
2018-12-29T14:03:35.396Z,1001.24
2018-12-29T14:04:35.517Z,1001.23
2018-12-29T14:07:10.911Z,1001.17
2018-12-29T14:09:17.450Z,1001.27
2018-12-29T14:10:11.271Z,1001.30
2018-12-29T14:11:36.956Z,1001.27
2018-12-29T14:12:09.940Z,1001.18
2018-12-29T14:13:25.333Z,1001.21
2018-12-29T14:15:13.315Z,1001.15
2018-12-29T14:16:12.280Z,1001.22
2018-12-29T14:17:12.599Z,1001.18
2018-12-29T14:19:13.807Z,1001.27
2018-12-29T14:20:13.530Z,1001.16
2018-12-29T14:21:12.319Z,1001.10
2018-12-29T14:22:11.703Z,1000.95
2018-12-29T14:23:11.628Z,1000.85
2018-12-29T14:24:12.851Z,1000.82
2018-12-29T14:25:12.051Z,1000.85
2018-12-29T14:26:11.994Z,1000.68
2018-12-29T14:27:12.419Z,1000.62
2018-12-29T14:28:12.398Z,1000.67
2018-12-29T14:29:12.601Z,1000.63
2018-12-29T14:30:12.688Z,1000.67
2018-12-29T14:31:12.896Z,1000.72
2018-12-29T14:32:13.136Z,1000.71
2018-12-29T14:33:13.114Z,1000.74
2018-12-29T14:34:13.558Z,1000.75
2018-12-29T14:35:13.964Z,1000.69
2018-12-29T14:36:13.864Z,1000.74
2018-12-29T14:37:13.889Z,1000.73
2018-12-29T14:38:14.303Z,1000.76
2018-12-29T14:39:14.444Z,1000.76
2018-12-29T14:40:14.605Z,1000.77
2018-12-29T14:41:14.709Z,1000.79
2018-12-29T14:42:15.014Z,1000.76
2018-12-29T14:43:15.169Z,1000.75
2018-12-29T14:44:15.526Z,1000.75
2018-12-29T14:45:15.569Z,1000.71
2018-12-29T14:46:15.682Z,1000.76
2018-12-29T14:47:15.936Z,1000.77
2018-12-29T14:48:15.943Z,1000.76
2018-12-29T14:49:16.200Z,1000.83
2018-12-29T14:50:16.701Z,1000.79
2018-12-29T14:51:16.478Z,1000.77
2018-12-29T14:52:16.598Z,1000.76
2018-12-29T14:53:17.043Z,1000.80
2018-12-29T14:54:17.819Z,1000.77
2018-12-29T14:55:16.962Z,1000.74
2018-12-29T14:56:17.500Z,1000.66
2018-12-29T14:57:17.880Z,1000.68
2018-12-29T14:58:18.482Z,1000.64
2018-12-29T14:59:17.893Z,1000.69
2018-12-29T15:00:20.354Z,1000.72
2018-12-29T15:03:50.690Z,1000.77
2018-12-29T15:05:50.225Z,1000.79
2018-12-29T15:06:50.188Z,1000.79
2018-12-29T15:07:50.447Z,1000.71
2018-12-29T15:08:53.523Z,1000.69
2018-12-29T15:09:50.569Z,1000.64
2018-12-29T15:10:48.694Z,1000.61
2018-12-29T15:11:48.435Z,1000.53
2018-12-29T15:12:49.434Z,1000.51
2018-12-29T15:13:48.724Z,1000.54
2018-12-29T15:14:48.858Z,1000.55
2018-12-29T15:15:49.077Z,1000.58
2018-12-29T15:16:49.265Z,1000.70
2018-12-29T15:17:49.392Z,1000.69
2018-12-29T15:18:49.683Z,1000.63
2018-12-29T15:22:42.425Z,1000.58
2018-12-29T15:23:45.329Z,1000.53
2018-12-29T15:24:51.105Z,1000.41
2018-12-29T15:25:43.191Z,1000.36
2018-12-29T15:27:08.012Z,1000.37
2018-12-29T15:27:52.609Z,1000.37
2018-12-29T15:30:50.482Z,1000.31
2018-12-29T16:08:39.251Z,999.22
2018-12-29T16:09:30.313Z,999.19
2018-12-29T16:10:31.208Z,999.20
2018-12-29T16:11:31.330Z,999.19
2018-12-29T16:12:31.191Z,999.12
2018-12-29T16:13:29.441Z,999.12
2018-12-29T16:14:35.354Z,999.27
2018-12-29T16:15:29.376Z,999.16
2018-12-29T16:16:29.553Z,999.03
2018-12-29T16:17:29.687Z,999.04
2018-12-29T16:18:30.128Z,999.00
2018-12-29T16:19:30.126Z,998.97
2018-12-29T16:20:30.681Z,998.90
2018-12-29T16:21:30.412Z,998.84
2018-12-29T16:22:30.635Z,998.94
2018-12-29T16:23:30.941Z,998.84
2018-12-29T16:24:31.343Z,998.76
2018-12-29T16:25:31.387Z,998.64
2018-12-29T16:26:31.469Z,998.57
2018-12-29T16:27:33.330Z,998.65
2018-12-29T16:28:31.964Z,998.63
2018-12-29T16:29:31.926Z,998.70
2018-12-29T16:30:32.908Z,998.75
2018-12-29T16:31:33.367Z,998.76
2018-12-29T16:32:32.774Z,998.73
2018-12-29T16:33:32.788Z,998.56
2018-12-29T16:34:33.459Z,998.58
2018-12-29T16:35:33.370Z,998.56
2018-12-29T16:36:32.949Z,998.44
2018-12-29T16:37:33.961Z,998.57
2018-12-29T16:38:35.075Z,998.53
2018-12-29T16:39:33.505Z,998.64
2018-12-29T16:40:33.817Z,998.80
2018-12-29T16:41:33.866Z,998.82
2018-12-29T16:42:34.142Z,998.88
2018-12-29T16:43:35.373Z,998.74
2018-12-29T16:44:34.256Z,998.77
2018-12-29T16:45:34.464Z,998.73
2018-12-29T16:46:34.589Z,998.78
2018-12-29T16:49:10.832Z,998.60
2018-12-29T16:50:11.105Z,998.57
2018-12-29T16:51:11.511Z,998.63
2018-12-29T16:52:11.868Z,998.56
2018-12-29T16:53:11.645Z,998.51
2018-12-29T16:54:11.876Z,998.60
2018-12-29T16:55:11.828Z,998.71
2018-12-29T16:56:12.123Z,998.80
2018-12-29T16:57:12.428Z,998.85
2018-12-29T16:58:12.526Z,998.93
2018-12-29T16:59:13.136Z,998.91
2018-12-29T17:00:12.782Z,998.83
2018-12-29T17:01:12.976Z,998.88
2018-12-29T17:02:11.303Z,999.02
2018-12-29T17:03:11.126Z,999.18
2018-12-29T17:04:11.368Z,999.18
2018-12-29T17:05:11.761Z,999.14
2018-12-29T17:06:12.310Z,999.15
2018-12-29T17:07:12.381Z,999.33
2018-12-29T17:08:11.871Z,999.32
2018-12-29T17:09:12.198Z,999.46
2018-12-29T17:10:12.267Z,999.66
2018-12-29T17:11:12.343Z,999.69
2018-12-29T17:12:12.527Z,999.61
2018-12-29T17:13:12.661Z,999.48
2018-12-29T17:14:12.956Z,999.49
2018-12-29T17:15:13.159Z,999.49
2018-12-29T17:16:13.967Z,999.40
2018-12-29T17:17:13.454Z,999.20
2018-12-29T17:18:13.507Z,999.10
2018-12-29T17:19:14.779Z,999.08
2018-12-29T17:20:13.812Z,999.03
2018-12-29T17:21:13.959Z,999.04
2018-12-29T17:22:14.242Z,999.06
2018-12-29T17:23:14.356Z,998.99
2018-12-29T17:24:14.664Z,998.93
2018-12-29T17:25:14.724Z,998.94
2018-12-29T17:26:15.416Z,998.96
2018-12-29T17:27:15.027Z,998.93
2018-12-29T17:28:15.219Z,998.92
2018-12-29T17:29:15.379Z,998.93
2018-12-29T17:30:15.578Z,998.90
2018-12-29T17:31:15.673Z,998.86
2018-12-29T17:32:16.477Z,998.87
2018-12-29T17:33:18.704Z,998.78
2018-12-29T17:34:16.262Z,998.76
2018-12-29T17:35:16.352Z,998.69
2018-12-29T17:36:16.542Z,998.69
2018-12-29T17:37:16.776Z,998.74
2018-12-29T17:38:16.760Z,998.71
2018-12-29T17:39:17.160Z,998.72
2018-12-29T17:40:17.887Z,998.66
2018-12-29T17:41:17.263Z,998.60
2018-12-29T17:42:17.581Z,998.58
2018-12-29T17:43:17.575Z,998.51
2018-12-29T17:44:17.841Z,998.48
2018-12-29T17:45:17.884Z,998.48
2018-12-29T17:46:18.028Z,998.38
2018-12-29T17:47:18.397Z,998.40
2018-12-29T17:48:18.425Z,998.28
2018-12-29T17:49:22.645Z,998.26
2018-12-29T17:50:18.728Z,998.29
2018-12-29T17:51:18.871Z,998.18
2018-12-29T17:52:19.032Z,998.18
2018-12-29T17:53:19.191Z,998.15
2018-12-29T17:54:19.386Z,998.09
2018-12-29T17:55:19.503Z,998.07
2018-12-29T17:56:19.668Z,998.09
2018-12-29T17:57:19.808Z,997.97
2018-12-29T17:58:20.110Z,997.98
2018-12-29T17:59:20.379Z,997.98
2018-12-29T18:00:21.061Z,997.96
2018-12-29T18:01:20.658Z,998.01
2018-12-29T18:02:21.384Z,998.05
2018-12-29T18:03:20.924Z,998.08
2018-12-29T18:04:20.919Z,998.14
2018-12-29T18:05:21.851Z,998.13
2018-12-29T18:06:21.293Z,998.17
2018-12-29T18:07:21.361Z,998.19
2018-12-29T18:08:21.501Z,998.18
2018-12-29T18:09:21.817Z,998.16
2018-12-29T18:10:21.980Z,998.22
2018-12-29T18:11:22.115Z,998.16
2018-12-29T18:12:22.183Z,998.14
2018-12-29T18:13:22.555Z,998.09
2018-12-29T18:14:22.614Z,998.07
2018-12-29T18:15:22.816Z,998.11
2018-12-29T18:16:23.015Z,998.13
2018-12-29T18:17:23.318Z,998.03
2018-12-29T18:18:23.453Z,997.99
2018-12-29T18:19:30.449Z,998.05
2018-12-29T18:20:23.545Z,998.05
2018-12-29T18:26:14.083Z,998.04
2018-12-29T18:27:14.771Z,998.05
2018-12-29T18:28:14.912Z,997.99
2018-12-29T18:29:15.161Z,997.97
2018-12-29T18:30:15.102Z,998.00
2018-12-29T18:31:15.416Z,997.99
2018-12-29T18:32:15.688Z,997.97
2018-12-29T18:33:16.323Z,997.94
2018-12-29T18:34:14.008Z,998.00
2018-12-29T18:35:14.464Z,998.00
2018-12-29T18:36:13.787Z,997.95
2018-12-29T18:37:14.263Z,997.93
2018-12-29T18:38:14.383Z,997.88
2018-12-29T18:39:14.858Z,997.87
2018-12-29T18:40:15.508Z,997.93
2018-12-29T18:41:15.232Z,997.92
2018-12-29T18:42:15.400Z,997.91
2018-12-29T18:43:16.568Z,997.94
2018-12-29T18:46:24.982Z,998.02
2018-12-29T18:47:25.416Z,998.09
2018-12-29T18:48:25.723Z,998.01
2018-12-29T18:49:26.153Z,997.95
2018-12-29T18:50:25.426Z,998.00
2018-12-29T18:51:23.634Z,997.86
2018-12-29T18:52:23.849Z,997.87
2018-12-29T18:53:24.016Z,997.88
2018-12-29T18:54:24.186Z,997.89
2018-12-29T18:55:24.462Z,997.85
2018-12-29T18:56:25.018Z,997.81
2018-12-29T18:57:25.140Z,997.80
2018-12-29T18:58:25.195Z,997.79
2018-12-29T18:59:25.702Z,997.79
2018-12-29T19:00:26.215Z,997.71
2018-12-29T19:01:26.111Z,997.70
2018-12-29T19:02:25.783Z,997.72
2018-12-29T19:03:25.688Z,997.65
2018-12-29T19:04:25.846Z,997.63
2018-12-29T19:05:26.008Z,997.62
2018-12-29T19:06:26.773Z,997.53
2018-12-29T19:07:26.783Z,997.44
2018-12-29T19:08:26.552Z,997.47
2018-12-29T19:09:26.666Z,997.32
2018-12-29T19:10:27.490Z,997.41
2018-12-29T19:11:27.107Z,997.49
2018-12-29T19:12:27.225Z,997.49
2018-12-29T19:13:27.436Z,997.54
2018-12-29T19:14:27.599Z,997.56
2018-12-29T19:15:27.723Z,997.48
2018-12-29T19:16:28.836Z,997.47
2018-12-29T19:17:28.067Z,997.38
2018-12-29T19:18:28.230Z,997.31
2018-12-29T19:19:28.397Z,997.28
2018-12-29T19:20:28.466Z,997.25
2018-12-29T19:21:28.869Z,997.23
2018-12-29T19:22:28.921Z,997.03
2018-12-29T19:23:28.986Z,997.07
2018-12-29T19:24:29.142Z,997.11
2018-12-29T19:25:29.346Z,997.20
2018-12-29T19:26:29.450Z,997.09
2018-12-29T19:27:29.599Z,997.00
2018-12-29T19:28:30.344Z,997.00
2018-12-29T19:29:32.916Z,996.97
2018-12-29T19:38:37.928Z,996.82
2018-12-29T19:39:37.721Z,996.79
2018-12-29T19:41:46.195Z,996.76
2018-12-29T19:43:39.154Z,996.79
2018-12-29T20:26:41.301Z,996.27
2018-12-29T20:27:43.640Z,996.23
2018-12-29T20:29:45.869Z,996.25
2018-12-29T20:30:43.970Z,996.32
2018-12-29T20:31:45.537Z,996.17
2018-12-29T20:32:44.596Z,996.13
2018-12-29T20:33:43.637Z,996.03
2018-12-29T20:34:55.172Z,995.98
2018-12-29T20:37:25.944Z,996.06
2018-12-29T20:38:34.589Z,996.04
2018-12-29T20:39:30.346Z,996.04
2018-12-29T20:40:31.001Z,996.01
2018-12-29T20:41:35.158Z,995.96
2018-12-29T20:43:48.032Z,996.01
2018-12-29T20:44:29.901Z,995.97
2018-12-29T20:45:27.614Z,995.98
2018-12-29T20:50:37.395Z,995.72
2018-12-29T20:51:45.344Z,995.85
2018-12-29T20:53:27.023Z,995.91
2018-12-29T20:53:45.619Z,995.88
2018-12-29T20:56:39.357Z,995.77
2018-12-29T20:59:17.448Z,995.77
2018-12-29T21:10:05.561Z,995.70
2018-12-29T21:11:02.952Z,995.73
2018-12-29T21:12:04.023Z,995.63
2018-12-29T21:13:02.619Z,995.61
2018-12-29T21:17:56.627Z,995.58
2018-12-29T21:18:56.293Z,995.48
2018-12-29T21:19:56.075Z,995.49
2018-12-29T21:21:10.293Z,995.48
2018-12-29T21:22:03.381Z,995.47
2018-12-29T21:23:05.457Z,995.56
2018-12-29T21:23:55.293Z,995.60
2018-12-29T21:51:59.704Z,995.12
2018-12-29T22:02:42.827Z,994.92
2018-12-29T22:03:34.825Z,994.92
2018-12-29T22:04:35.620Z,994.92
2018-12-29T22:05:35.232Z,994.83
2018-12-29T22:06:35.325Z,994.92
2018-12-29T22:07:33.738Z,994.81
2018-12-29T22:08:33.947Z,994.79
2018-12-29T22:09:33.837Z,994.92
2018-12-29T22:10:34.023Z,994.89
2018-12-29T22:11:34.128Z,994.82
2018-12-29T22:12:34.556Z,994.74
2018-12-29T22:13:34.408Z,994.77
2018-12-29T22:14:34.618Z,994.80
2018-12-29T22:15:34.845Z,994.85
2018-12-29T22:16:34.887Z,994.83
2018-12-29T22:17:35.150Z,994.83
2018-12-29T22:18:35.654Z,994.78
2018-12-29T22:19:35.470Z,994.73
2018-12-29T22:20:35.688Z,994.69
2018-12-29T22:21:35.956Z,994.68
2018-12-29T22:22:35.942Z,994.76
2018-12-29T22:23:36.272Z,994.72
2018-12-29T22:24:36.391Z,994.70
2018-12-29T22:25:37.083Z,994.78
2018-12-29T22:26:36.816Z,994.62
2018-12-29T22:27:37.034Z,994.61
2018-12-29T22:28:37.069Z,994.57
2018-12-29T22:29:37.247Z,994.56
2018-12-29T22:32:13.233Z,994.56
2018-12-29T22:33:12.121Z,994.49
2018-12-29T22:34:13.269Z,994.41
2018-12-29T22:35:12.222Z,994.56
2018-12-29T22:36:12.122Z,994.53
2018-12-29T22:37:12.519Z,994.52
2018-12-29T22:38:12.820Z,994.44
2018-12-29T22:39:12.507Z,994.43
2018-12-29T22:40:13.892Z,994.44
2018-12-29T22:41:12.837Z,994.42
2018-12-29T22:42:13.323Z,994.49
2018-12-29T22:43:13.639Z,994.59
2018-12-29T22:44:13.382Z,994.62
2018-12-29T22:45:11.843Z,994.66
2018-12-29T22:46:11.694Z,994.71
2018-12-29T22:47:11.879Z,994.80
2018-12-29T22:48:11.892Z,994.84
2018-12-29T22:49:12.113Z,994.79
